Time;durP1;ratioP1;P1;durP2;ratioP2;P2;SDS_P1;SDS_P2;PMS_P1;PMS_P2;Temp;Humidity;BMP_temperature;BMP_pressure;BME280_temperature;BME280_humidity;BME280_pressure;Samples;Min_cycle;Max_cycle;Signal;HPM_P1;HPM_P2
2022/12/06 07:59:07;;;;;;;1.50;1.40;;;20.80;46.60;;;;;;5080874;27;20344;-65
2022/12/06 08:01:33;;;;;;;1.60;1.30;;;20.80;46.40;;;;;;5087415;28;20203;-63
2022/12/06 08:04:00;;;;;;;3.00;1.50;;;20.80;46.50;;;;;;5039155;28;20240;-63
2022/12/06 08:06:26;;;;;;;1.77;1.60;;;20.90;46.70;;;;;;5019171;28;20301;-63
2022/12/06 08:08:53;;;;;;;1.48;1.38;;;21.00;46.60;;;;;;5020506;28;20206;-63
2022/12/06 08:11:19;;;;;;;1.50;1.40;;;21.10;46.50;;;;;;5014129;28;20202;-64
2022/12/06 08:13:46;;;;;;;3.22;1.90;;;21.20;46.10;;;;;;5016999;28;20219;-63
2022/12/06 08:16:12;;;;;;;9.68;8.77;;;21.30;45.90;;;;;;5022969;28;20205;-64
2022/12/06 08:18:39;;;;;;;10.23;9.23;;;14.70;28.00;;;;;;5020177;28;20229;-63
2022/12/06 08:21:05;;;;;;;10.90;9.83;;;8.00;42.70;;;;;;5018003;28;20198;-67
2022/12/06 08:23:31;;;;;;;11.70;10.50;;;5.10;50.80;;;;;;5011403;28;20226;-66
2022/12/06 08:25:58;;;;;;;11.87;10.67;;;4.10;55.10;;;;;;5008755;28;20203;-66
2022/12/06 08:28:24;;;;;;;11.93;10.60;;;3.80;57.70;;;;;;5007782;28;20208;-64
2022/12/06 08:30:51;;;;;;;11.13;10.03;;;3.80;58.10;;;;;;5006061;28;20256;-65
2022/12/06 08:33:17;;;;;;;11.47;10.23;;;3.90;57.00;;;;;;5015727;28;20305;-62
2022/12/06 08:35:44;;;;;;;12.07;10.87;;;3.80;58.10;;;;;;5015525;28;20563;-63
2022/12/06 08:38:10;;;;;;;13.80;11.17;;;3.70;58.50;;;;;;5018722;28;20264;-62
2022/12/06 08:40:36;;;;;;;13.63;10.50;;;3.80;58.10;;;;;;5018652;28;20206;-62
2022/12/06 08:43:03;;;;;;;13.10;10.07;;;3.80;58.60;;;;;;5013933;28;20241;-63
2022/12/06 08:45:29;;;;;;;12.50;10.50;;;3.70;59.00;;;;;;5015088;28;20209;-63
2022/12/06 08:47:56;;;;;;;13.17;10.90;;;3.70;58.90;;;;;;5024284;28;20258;-62
2022/12/06 08:50:22;;;;;;;12.00;10.70;;;3.70;59.20;;;;;;5017311;28;20211;-63
2022/12/06 08:52:49;;;;;;;13.50;11.20;;;3.70;58.60;;;;;;5009483;28;20228;-65
2022/12/06 08:55:15;;;;;;;12.97;10.57;;;3.60;59.70;;;;;;5010971;28;20196;-69
2022/12/06 08:57:42;;;;;;;12.53;10.60;;;3.60;59.70;;;;;;5026984;28;20229;-67
2022/12/06 09:00:08;;;;;;;13.03;10.87;;;3.70;59.40;;;;;;5025735;28;20682;-62
2022/12/06 09:02:34;;;;;;;12.83;10.23;;;3.80;58.70;;;;;;5039002;28;20226;-64
2022/12/06 09:05:01;;;;;;;11.53;10.00;;;4.00;58.20;;;;;;5032452;28;20227;-63
2022/12/06 09:07:27;;;;;;;12.50;10.97;;;4.10;57.90;;;;;;5038021;28;20228;-62
2022/12/06 09:09:54;;;;;;;12.03;10.47;;;4.20;56.70;;;;;;5021754;28;20285;-63
2022/12/06 09:12:20;;;;;;;11.83;10.63;;;4.10;57.00;;;;;;5028089;28;20227;-63
2022/12/06 09:14:47;;;;;;;12.10;10.23;;;4.40;57.40;;;;;;5026346;28;20545;-63
2022/12/06 09:17:13;;;;;;;10.73;9.63;;;4.60;56.70;;;;;;5020296;28;20204;-64
2022/12/06 09:19:40;;;;;;;11.27;10.07;;;4.50;56.30;;;;;;5020697;28;20537;-66
2022/12/06 09:22:06;;;;;;;11.73;10.03;;;4.40;56.00;;;;;;5020526;28;20227;-65
2022/12/06 09:24:32;;;;;;;12.37;10.13;;;4.50;55.90;;;;;;5023222;28;20273;-64
2022/12/06 09:26:59;;;;;;;10.47;9.27;;;4.40;56.20;;;;;;5014908;28;20668;-65
2022/12/06 09:29:25;;;;;;;11.40;9.47;;;4.50;55.90;;;;;;5024329;28;20668;-63
2022/12/06 09:31:52;;;;;;;10.57;8.87;;;4.50;57.10;;;;;;5016488;28;20225;-63
2022/12/06 09:34:19;;;;;;;11.30;9.40;;;4.40;56.50;;;;;;5012961;28;20290;-65
2022/12/06 09:36:45;;;;;;;10.13;9.13;;;4.30;56.70;;;;;;5013393;28;20483;-67
2022/12/06 09:39:12;;;;;;;9.53;8.53;;;4.50;55.90;;;;;;5021993;28;20229;-68
2022/12/06 09:41:38;;;;;;;11.80;8.57;;;4.50;56.50;;;;;;5010797;28;20208;-68
2022/12/06 09:44:05;;;;;;;12.30;8.90;;;4.40;56.40;;;;;;5022956;28;20235;-66
2022/12/06 09:46:31;;;;;;;9.77;8.77;;;4.40;56.20;;;;;;5020687;28;20546;-65
2022/12/06 09:48:58;;;;;;;9.00;8.10;;;4.60;55.80;;;;;;5016697;28;20227;-67
2022/12/06 09:51:24;;;;;;;10.47;8.30;;;4.60;55.90;;;;;;5015975;28;20202;-66
2022/12/06 09:53:51;;;;;;;9.70;8.10;;;4.60;56.10;;;;;;5011732;28;20219;-66
2022/12/06 09:56:19;;;;;;;11.50;8.80;;;4.70;55.80;;;;;;5022629;28;20558;-64
2022/12/06 09:58:45;;;;;;;9.07;8.10;;;4.60;56.00;;;;;;5020532;28;20281;-66
2022/12/06 10:01:12;;;;;;;10.63;8.67;;;4.60;55.80;;;;;;5012820;28;20215;-65
2022/12/06 10:03:39;;;;;;;9.53;8.53;;;4.60;55.60;;;;;;5018386;28;20298;-67
2022/12/06 10:06:05;;;;;;;8.93;8.13;;;4.70;56.30;;;;;;5014306;28;20306;-66
2022/12/06 10:08:35;;;;;;;9.23;8.10;;;4.60;55.00;;;;;;5016468;28;20227;-66
2022/12/06 10:11:01;;;;;;;8.50;7.60;;;4.80;55.60;;;;;;5013865;28;20206;-67
2022/12/06 10:13:28;;;;;;;9.03;8.13;;;4.70;54.60;;;;;;5021971;28;20202;-66
2022/12/06 10:15:54;;;;;;;10.07;8.10;;;4.70;57.10;;;;;;5015482;28;20219;-65
2022/12/06 10:18:21;;;;;;;11.27;7.87;;;4.80;55.70;;;;;;5022613;28;20234;-67
2022/12/06 10:20:47;;;;;;;7.90;7.10;;;4.90;55.50;;;;;;5009639;28;20270;-66
2022/12/06 10:23:14;;;;;;;7.70;6.90;;;5.00;54.70;;;;;;5026608;28;20204;-67
2022/12/06 10:25:40;;;;;;;8.63;7.10;;;5.10;54.30;;;;;;5014931;28;20250;-66
2022/12/06 10:28:07;;;;;;;7.60;6.90;;;5.00;54.70;;;;;;5014286;28;20287;-68
2022/12/06 10:30:33;;;;;;;9.00;7.87;;;4.90;54.60;;;;;;5025647;28;20195;-66
2022/12/06 10:33:04;;;;;;;7.47;6.67;;;5.10;54.80;;;;;;5012448;28;20207;-61
2022/12/06 10:35:30;;;;;;;8.30;6.87;;;5.00;54.70;;;;;;5027319;28;20209;-61
2022/12/06 10:37:56;;;;;;;8.43;7.00;;;4.80;53.70;;;;;;5029578;28;20237;-63
2022/12/06 10:40:23;;;;;;;7.13;6.43;;;4.90;53.90;;;;;;5024906;28;20207;-64
2022/12/06 10:42:49;;;;;;;7.30;6.40;;;5.00;54.50;;;;;;5027023;28;20212;-62
2022/12/06 10:47:56;;;;;;;6.80;6.10;;;5.00;53.00;;;;;;5019060;28;20211;-63
2022/12/06 10:50:23;;;;;;;6.57;5.60;;;4.90;52.80;;;;;;5012899;28;20711;-64
2022/12/06 10:52:49;;;;;;;2.33;2.13;;;4.80;52.40;;;;;;5060503;28;20230;-49
2022/12/06 10:55:15;;;;;;;2.80;2.50;;;8.30;94.40;;;;;;5065292;28;20211;-50
2022/12/06 10:57:42;;;;;;;2.03;1.80;;;15.20;99.90;;;;;;5052684;28;20276;-51
2022/12/06 11:00:08;;;;;;;3.33;2.23;;;17.10;91.10;;;;;;5068449;28;20675;-51
2022/12/06 11:02:36;;;;;;;2.10;2.00;;;18.50;66.50;;;;;;5071699;28;20203;-44
2022/12/06 11:05:03;;;;;;;1.70;1.60;;;19.40;60.80;;;;;;5056705;28;20241;-49
2022/12/06 11:07:29;;;;;;;1.50;1.40;;;19.80;58.70;;;;;;5058238;28;20214;-47
2022/12/06 11:09:56;;;;;;;1.23;1.13;;;20.20;57.60;;;;;;5009716;28;20706;-48
2022/12/06 11:12:22;;;;;;;1.40;1.30;;;20.50;57.00;;;;;;5057528;28;20243;-50
2022/12/06 11:14:49;;;;;;;1.93;1.27;;;20.70;57.10;;;;;;5032692;28;20669;-46
2022/12/06 11:17:16;;;;;;;1.20;1.10;;;20.90;55.60;;;;;;5043892;28;20231;-51
2022/12/06 11:19:42;;;;;;;1.90;1.10;;;21.00;55.30;;;;;;5031285;28;20237;-50
2022/12/06 11:22:09;;;;;;;1.17;1.03;;;21.10;54.40;;;;;;5045554;28;20261;-48
2022/12/06 11:24:35;;;;;;;1.23;1.00;;;21.10;54.90;;;;;;5046982;28;20207;-45
2022/12/06 11:27:03;;;;;;;1.00;1.00;;;21.10;54.40;;;;;;5044956;28;20222;-45
2022/12/06 11:29:29;;;;;;;1.00;1.00;;;21.10;54.90;;;;;;5032127;28;20219;-42
2022/12/06 11:31:56;;;;;;;1.20;1.10;;;21.10;54.70;;;;;;5032089;28;20274;-44
2022/12/06 11:34:22;;;;;;;1.25;1.15;;;21.10;54.90;;;;;;5032140;28;20198;-42
2022/12/06 11:36:49;;;;;;;1.58;1.27;;;21.10;55.00;;;;;;5036867;28;20231;-37
2022/12/06 11:39:15;;;;;;;1.33;1.20;;;21.10;54.70;;;;;;5031701;28;20514;-47
2022/12/06 11:41:42;;;;;;;1.75;1.20;;;21.10;54.40;;;;;;5035866;28;20198;-43
2022/12/06 11:44:08;;;;;;;1.02;0.85;;;21.10;54.40;;;;;;5034929;28;20206;-39
2022/12/06 11:46:34;;;;;;;1.30;1.20;;;21.10;54.40;;;;;;5038264;28;20218;-38
2022/12/06 11:49:01;;;;;;;1.33;1.00;;;21.10;54.40;;;;;;5039965;28;20198;-34
2022/12/06 11:51:27;;;;;;;3.33;1.48;;;21.10;54.40;;;;;;5032311;28;20571;-40
2022/12/06 11:53:54;;;;;;;2.40;1.10;;;21.10;54.40;;;;;;5034553;28;20199;-41
2022/12/06 11:56:20;;;;;;;1.35;1.10;;;21.10;54.40;;;;;;5038648;28;20221;-39
2022/12/06 11:58:47;;;;;;;1.10;1.00;;;21.20;54.30;;;;;;5039794;28;20252;-44
2022/12/06 12:01:13;;;;;;;2.15;1.10;;;21.10;54.00;;;;;;5040809;28;20205;-43
2022/12/06 12:03:40;;;;;;;1.92;1.20;;;21.20;53.90;;;;;;5040530;28;20209;-33
2022/12/06 12:06:06;;;;;;;1.20;1.10;;;21.20;54.00;;;;;;5036822;28;20229;-43
2022/12/06 12:08:32;;;;;;;1.58;1.45;;;21.20;53.90;;;;;;5030933;28;20710;-34
2022/12/06 12:10:59;;;;;;;1.50;1.40;;;21.20;54.00;;;;;;5034482;28;20591;-45
2022/12/06 12:13:44;;;;;;;1.75;1.42;;;21.20;54.00;;;;;;5048049;28;20209;-47
2022/12/06 12:16:10;;;;;;;3.20;1.15;;;21.20;53.90;;;;;;5033566;28;20217;-49
2022/12/06 12:18:36;;;;;;;1.73;1.30;;;21.30;53.90;;;;;;5039139;28;20221;-47
2022/12/06 12:21:03;;;;;;;2.83;1.40;;;21.40;54.20;;;;;;5044900;28;20293;-42
2022/12/06 12:23:29;;;;;;;2.80;1.30;;;21.40;53.90;;;;;;5034199;28;20206;-48
2022/12/06 12:25:56;;;;;;;3.55;1.50;;;21.50;54.00;;;;;;5027996;28;20237;-45
2022/12/06 12:28:22;;;;;;;2.10;1.27;;;21.50;54.00;;;;;;5053960;28;20199;-47
2022/12/06 12:30:49;;;;;;;1.45;1.35;;;21.50;54.00;;;;;;5041135;28;20201;-49
2022/12/06 12:33:15;;;;;;;2.70;1.42;;;21.50;54.00;;;;;;5038438;28;20224;-47
2022/12/06 12:35:41;;;;;;;2.95;1.60;;;21.50;53.90;;;;;;5040190;28;20226;-48
2022/12/06 12:38:08;;;;;;;3.20;1.63;;;21.50;54.00;;;;;;5044517;28;20230;-46
2022/12/06 12:40:34;;;;;;;2.15;1.95;;;21.50;53.90;;;;;;5050406;28;20194;-34
2022/12/06 12:43:01;;;;;;;3.85;2.25;;;21.50;53.90;;;;;;5039924;28;20210;-47
2022/12/06 12:45:28;;;;;;;3.60;2.08;;;21.50;54.00;;;;;;5046790;28;20225;-49
2022/12/06 12:47:55;;;;;;;2.30;1.88;;;21.50;54.00;;;;;;5054996;28;20206;-47
2022/12/06 12:50:22;;;;;;;3.40;2.13;;;21.50;54.00;;;;;;5051959;28;20217;-46
2022/12/06 12:52:49;;;;;;;3.65;1.52;;;21.50;53.90;;;;;;5037346;28;20206;-47
2022/12/06 12:55:15;;;;;;;3.90;2.28;;;21.50;53.80;;;;;;5045515;28;20213;-48
2022/12/06 12:57:41;;;;;;;4.03;2.15;;;21.40;53.80;;;;;;5054975;28;20592;-50
2022/12/06 13:00:08;;;;;;;2.42;2.22;;;21.40;53.70;;;;;;5052752;28;20241;-49
2022/12/06 13:02:34;;;;;;;3.55;1.90;;;21.40;53.60;;;;;;5062225;28;20201;-45
2022/12/06 13:05:01;;;;;;;4.57;1.83;;;21.40;53.60;;;;;;5056402;28;20251;-47
2022/12/06 13:07:27;;;;;;;2.88;1.95;;;21.40;53.50;;;;;;5043376;28;20205;-47
2022/12/06 13:09:53;;;;;;;2.97;1.88;;;21.50;53.60;;;;;;5052372;28;20210;-44
2022/12/06 13:12:20;;;;;;;3.80;2.40;;;21.50;53.70;;;;;;5048617;28;20199;-45
2022/12/06 13:14:46;;;;;;;3.25;1.75;;;21.50;53.70;;;;;;5054235;28;20217;-49
2022/12/06 13:17:13;;;;;;;2.85;1.98;;;21.40;54.20;;;;;;5056587;28;20211;-48
2022/12/06 13:19:39;;;;;;;2.53;1.80;;;21.40;53.40;;;;;;5051604;28;20597;-45
2022/12/06 13:22:06;;;;;;;2.70;2.03;;;21.40;53.30;;;;;;5053408;28;20213;-46
2022/12/06 13:24:32;;;;;;;3.03;1.85;;;21.40;53.30;;;;;;5048966;28;20222;-34
2022/12/06 13:26:59;;;;;;;3.63;1.77;;;21.40;53.30;;;;;;5040151;28;20201;-45
2022/12/06 13:29:25;;;;;;;1.95;1.60;;;21.40;53.30;;;;;;5056602;28;20198;-42
2022/12/06 13:31:52;;;;;;;4.10;1.85;;;21.40;53.30;;;;;;5052065;28;20204;-44
2022/12/06 13:34:18;;;;;;;2.78;1.98;;;21.40;53.20;;;;;;5057091;28;20229;-41
2022/12/06 13:36:45;;;;;;;2.92;1.70;;;21.40;53.20;;;;;;5064326;28;20206;-48
2022/12/06 13:39:11;;;;;;;2.30;1.58;;;21.40;53.20;;;;;;5049930;28;20261;-41
2022/12/06 13:44:18;;;;;;;4.65;2.42;;;21.30;53.10;;;;;;5069350;28;20228;-28
2022/12/06 13:46:44;;;;;;;2.67;1.65;;;21.30;53.10;;;;;;5041832;28;20215;-31
2022/12/06 13:49:11;;;;;;;3.20;2.20;;;21.40;53.20;;;;;;5046463;28;20206;-43
2022/12/06 13:51:37;;;;;;;3.42;1.90;;;21.30;53.20;;;;;;5064310;28;20201;-36
2022/12/06 13:54:04;;;;;;;2.72;1.58;;;21.40;53.20;;;;;;5057812;28;20232;-44
2022/12/06 13:56:30;;;;;;;3.22;1.92;;;21.30;53.10;;;;;;5066169;28;20607;-44
2022/12/06 13:58:57;;;;;;;3.72;1.83;;;21.40;53.10;;;;;;5047195;28;20233;-50
2022/12/06 14:01:23;;;;;;;4.20;2.05;;;21.40;53.00;;;;;;5049749;28;20202;-44
2022/12/06 14:03:49;;;;;;;1.70;1.50;;;21.30;52.90;;;;;;5034636;28;20579;-43
2022/12/06 14:06:16;;;;;;;2.45;1.65;;;21.40;52.90;;;;;;5042004;28;20637;-49
2022/12/06 14:08:42;;;;;;;2.97;1.70;;;21.40;52.90;;;;;;5050859;28;20216;-35
2022/12/06 14:11:09;;;;;;;4.35;1.70;;;21.30;52.80;;;;;;5065738;28;20645;-45
2022/12/06 14:13:35;;;;;;;3.72;1.83;;;21.30;52.80;;;;;;5056316;28;20226;-45
2022/12/06 14:16:01;;;;;;;1.60;1.50;;;21.30;52.80;;;;;;5040532;28;20214;-46
2022/12/06 14:18:28;;;;;;;2.65;1.90;;;21.30;52.80;;;;;;5052354;28;20225;-46
2022/12/06 14:20:54;;;;;;;1.90;1.60;;;21.30;52.70;;;;;;5052911;28;20198;-47
2022/12/06 14:23:21;;;;;;;2.47;1.85;;;21.30;52.70;;;;;;5058124;28;20221;-38
2022/12/06 14:25:47;;;;;;;2.22;1.65;;;21.40;52.60;;;;;;5054077;28;20201;-43
2022/12/06 14:28:14;;;;;;;3.38;1.98;;;21.40;52.50;;;;;;5045477;28;20657;-47
2022/12/06 14:30:42;;;;;;;3.95;1.67;;;21.40;52.50;;;;;;5038396;28;20202;-37
2022/12/06 14:33:08;;;;;;;4.32;1.50;;;21.40;52.30;;;;;;5050530;28;20217;-42
2022/12/06 14:35:35;;;;;;;3.30;1.85;;;21.30;52.30;;;;;;5053208;28;20663;-43
2022/12/06 14:38:02;;;;;;;3.60;1.80;;;21.20;52.30;;;;;;5035049;28;20663;-41
2022/12/06 14:42:59;;;;;;;3.85;2.08;;;21.20;52.30;;;;;;5032539;28;20222;-48
2022/12/06 14:43:13;;;;;;;3.35;1.70;;;21.10;52.30;;;;;;5032642;28;20222;-37
2022/12/06 14:45:40;;;;;;;1.77;1.50;;;21.20;52.40;;;;;;5040080;28;20203;-38
2022/12/06 14:48:06;;;;;;;4.13;2.08;;;21.10;52.30;;;;;;5054187;28;20213;-38
2022/12/06 14:50:32;;;;;;;2.83;2.05;;;21.10;52.30;;;;;;5048700;28;20559;-37
2022/12/06 14:52:58;;;;;;;4.05;1.83;;;21.10;52.50;;;;;;5050826;28;20596;-30
2022/12/06 14:55:24;;;;;;;3.38;1.88;;;21.10;52.50;;;;;;5048151;28;20206;-37
2022/12/06 14:57:51;;;;;;;4.57;1.45;;;21.10;52.50;;;;;;5057270;28;20209;-39
2022/12/06 15:00:17;;;;;;;2.30;1.60;;;21.10;52.50;;;;;;5060495;28;20237;-33
2022/12/06 15:02:44;;;;;;;3.40;1.40;;;21.10;52.50;;;;;;5069261;28;20220;-33
2022/12/06 15:05:10;;;;;;;4.00;1.58;;;21.10;52.60;;;;;;5067054;28;20574;-33
2022/12/06 15:07:37;;;;;;;2.97;1.38;;;21.10;52.50;;;;;;5059411;28;20201;-40
2022/12/06 15:10:03;;;;;;;3.00;1.52;;;21.20;52.60;;;;;;5040121;28;20214;-48
2022/12/06 15:15:14;;;;;;;2.40;1.40;;;21.20;52.70;;;;;;5031597;28;20264;-43
2022/12/06 15:17:40;;;;;;;3.88;1.98;;;21.20;52.60;;;;;;5055474;28;20198;-43
2022/12/06 15:20:06;;;;;;;6.65;1.77;;;21.20;52.60;;;;;;5032426;28;20334;-44
2022/12/06 15:22:34;;;;;;;1.77;1.50;;;21.20;52.60;;;;;;5037665;28;20256;-43
2022/12/06 15:25:02;;;;;;;3.60;1.98;;;21.10;53.20;;;;;;5046186;28;20630;-34
2022/12/06 15:27:30;;;;;;;3.20;1.52;;;21.20;52.50;;;;;;5046547;28;20200;-43
2022/12/06 15:29:56;;;;;;;1.92;1.40;;;21.10;53.10;;;;;;5042850;28;20545;-45
2022/12/06 15:32:22;;;;;;;1.75;1.30;;;21.10;52.30;;;;;;5060062;28;20239;-41
2022/12/06 15:34:49;;;;;;;2.72;1.45;;;21.10;52.40;;;;;;5042623;28;20211;-47
2022/12/06 15:37:15;;;;;;;2.33;1.48;;;21.10;52.60;;;;;;5041382;28;20210;-44
2022/12/06 15:39:42;;;;;;;2.28;1.45;;;21.10;52.50;;;;;;5031578;28;20228;-38
2022/12/06 15:42:08;;;;;;;1.98;1.63;;;21.20;52.70;;;;;;5045356;28;20228;-42
2022/12/06 15:44:35;;;;;;;3.22;1.40;;;21.30;52.50;;;;;;5052052;28;20358;-45
2022/12/06 15:47:01;;;;;;;1.98;1.38;;;21.40;52.60;;;;;;5046695;28;20201;-46
2022/12/06 15:49:28;;;;;;;4.93;1.45;;;21.50;52.10;;;;;;5060679;28;20580;-39
2022/12/06 15:51:55;;;;;;;3.33;1.92;;;21.50;52.50;;;;;;5067059;28;20232;-44
2022/12/06 15:54:21;;;;;;;3.10;1.30;;;21.60;52.10;;;;;;5057575;28;20212;-47
2022/12/06 15:56:47;;;;;;;4.75;1.67;;;21.60;52.10;;;;;;5055987;28;20205;-47
2022/12/06 15:59:14;;;;;;;3.78;1.58;;;21.60;52.00;;;;;;5054643;28;20232;-38
2022/12/06 16:01:40;;;;;;;2.45;1.50;;;21.60;51.80;;;;;;5038486;28;20209;-44
2022/12/06 16:04:07;;;;;;;3.65;1.60;;;21.60;51.80;;;;;;5051390;28;20208;-45
2022/12/06 16:06:33;;;;;;;2.40;1.60;;;21.60;51.80;;;;;;5046462;28;20198;-43
2022/12/06 16:08:59;;;;;;;2.55;1.50;;;21.60;51.80;;;;;;5058068;28;20209;-38
2022/12/06 16:11:26;;;;;;;2.03;1.35;;;21.70;52.20;;;;;;5062969;28;20291;-45
2022/12/06 16:13:52;;;;;;;2.72;1.50;;;21.80;51.90;;;;;;5054385;28;20292;-44
2022/12/06 16:16:19;;;;;;;1.42;1.33;;;21.80;51.30;;;;;;5034040;28;20206;-38
2022/12/06 16:18:45;;;;;;;3.28;1.40;;;21.80;51.60;;;;;;5056312;28;20267;-43
2022/12/06 16:21:12;;;;;;;2.40;1.73;;;21.80;51.40;;;;;;5034555;28;20252;-43
2022/12/06 16:26:22;;;;;;;2.90;1.88;;;21.80;51.20;;;;;;5034896;28;20217;-34
2022/12/06 16:28:49;;;;;;;3.08;1.45;;;21.70;51.30;;;;;;5043599;28;20565;-38
2022/12/06 16:31:15;;;;;;;2.90;1.60;;;21.80;51.00;;;;;;5041749;28;20654;-48
2022/12/06 16:33:42;;;;;;;2.63;1.20;;;21.70;51.00;;;;;;5055283;28;20539;-47
2022/12/06 16:36:08;;;;;;;1.30;1.20;;;21.70;51.20;;;;;;5053454;28;20670;-44
2022/12/06 16:38:35;;;;;;;4.13;1.85;;;21.70;51.00;;;;;;5039571;28;20203;-42
2022/12/06 16:41:01;;;;;;;1.70;1.40;;;21.70;51.20;;;;;;5040053;28;20212;-46
2022/12/06 16:43:27;;;;;;;1.92;1.40;;;21.70;51.10;;;;;;5057042;28;20233;-43
2022/12/06 16:45:54;;;;;;;3.22;1.40;;;21.70;50.90;;;;;;5047672;28;20570;-38
2022/12/06 16:48:22;;;;;;;3.20;1.30;;;21.70;51.20;;;;;;5048680;28;20242;-43
2022/12/06 16:50:48;;;;;;;1.60;1.45;;;21.70;51.30;;;;;;5053448;28;20234;-39
2022/12/06 16:53:15;;;;;;;1.50;1.40;;;21.70;51.30;;;;;;5046411;28;20225;-45
2022/12/06 16:55:42;;;;;;;1.75;1.35;;;21.70;50.70;;;;;;5063824;28;20231;-46
2022/12/06 16:58:08;;;;;;;1.50;1.40;;;21.70;51.00;;;;;;5065013;28;20209;-43
2022/12/06 17:00:35;;;;;;;2.08;1.73;;;21.80;51.00;;;;;;5057818;28;20226;-41
2022/12/06 17:03:01;;;;;;;2.95;1.42;;;21.80;51.00;;;;;;5059939;28;20589;-41
2022/12/06 17:05:27;;;;;;;1.98;1.30;;;21.70;51.10;;;;;;5053508;28;20205;-40
2022/12/06 17:07:54;;;;;;;1.65;1.30;;;21.70;50.90;;;;;;5065615;28;20204;-39
2022/12/06 17:10:20;;;;;;;1.60;1.27;;;21.70;50.80;;;;;;5046215;28;20214;-47
2022/12/06 17:12:47;;;;;;;1.50;1.27;;;21.70;50.60;;;;;;5045276;28;20476;-38
2022/12/06 17:15:13;;;;;;;2.58;1.50;;;21.70;50.90;;;;;;5066042;28;20657;-40
2022/12/06 17:17:40;;;;;;;2.00;1.50;;;21.70;50.70;;;;;;5052984;28;20244;-44
2022/12/06 17:20:07;;;;;;;2.35;1.45;;;21.70;50.30;;;;;;5056593;28;20232;-46
2022/12/06 17:22:34;;;;;;;1.45;1.35;;;21.70;50.50;;;;;;5057690;28;20226;-40
2022/12/06 17:25:00;;;;;;;1.83;1.30;;;21.70;51.10;;;;;;5042597;28;20213;-44
2022/12/06 17:27:27;;;;;;;2.28;1.23;;;21.70;50.50;;;;;;5045862;28;20198;-37
2022/12/06 17:29:53;;;;;;;2.45;1.35;;;21.70;50.80;;;;;;5054446;28;20213;-38
2022/12/06 17:32:20;;;;;;;2.67;1.80;;;21.70;50.70;;;;;;5051015;28;20642;-36
2022/12/06 17:34:47;;;;;;;3.88;1.92;;;21.80;50.60;;;;;;5037481;28;20266;-42
2022/12/06 17:37:13;;;;;;;1.67;1.50;;;21.80;50.60;;;;;;5050312;28;20206;-34
2022/12/06 17:39:40;;;;;;;1.48;1.20;;;21.80;50.80;;;;;;5042965;28;20214;-46
2022/12/06 17:44:50;;;;;;;2.30;1.38;;;21.80;50.40;;;;;;5038297;28;20570;-41
2022/12/06 17:47:17;;;;;;;1.27;1.10;;;21.90;50.50;;;;;;5034461;28;20210;-39
2022/12/06 17:49:43;;;;;;;2.53;1.30;;;21.80;50.40;;;;;;5043053;28;20198;-42
2022/12/06 17:52:09;;;;;;;2.28;1.48;;;21.80;50.40;;;;;;5061955;28;20221;-44
2022/12/06 17:54:36;;;;;;;1.27;1.17;;;21.80;50.40;;;;;;5045645;28;20210;-35
2022/12/06 17:57:02;;;;;;;2.22;1.65;;;21.90;50.50;;;;;;5043938;28;20221;-34
2022/12/06 17:59:29;;;;;;;2.97;1.50;;;21.80;50.40;;;;;;5045773;28;20316;-41
2022/12/06 18:01:59;;;;;;;2.50;1.17;;;21.80;50.40;;;;;;5047329;28;20237;-46
2022/12/06 18:04:25;;;;;;;1.50;1.40;;;21.80;50.40;;;;;;5055512;28;20262;-49
2022/12/06 18:06:52;;;;;;;2.05;1.70;;;21.70;50.30;;;;;;5036569;28;20202;-42
2022/12/06 18:09:18;;;;;;;1.55;1.30;;;21.60;50.60;;;;;;5043892;28;20203;-46
2022/12/06 18:11:44;;;;;;;1.67;1.30;;;21.60;50.80;;;;;;5068586;28;20223;-44
2022/12/06 18:14:11;;;;;;;2.15;1.58;;;21.70;50.80;;;;;;5054058;28;20602;-40
2022/12/06 18:16:37;;;;;;;2.00;1.40;;;21.70;50.50;;;;;;5047026;28;20689;-35
2022/12/06 18:19:04;;;;;;;1.63;1.52;;;21.70;50.70;;;;;;5054302;28;20208;-45
2022/12/06 18:21:30;;;;;;;2.88;1.30;;;21.60;50.20;;;;;;5072213;28;20605;-47
2022/12/06 18:23:57;;;;;;;1.38;1.27;;;21.60;50.40;;;;;;5041161;28;20238;-41
2022/12/06 18:26:23;;;;;;;1.60;1.25;;;21.60;50.50;;;;;;5050736;28;20206;-47
2022/12/06 18:28:49;;;;;;;1.70;1.48;;;21.50;50.70;;;;;;5047040;28;20208;-41
2022/12/06 18:31:16;;;;;;;2.28;1.60;;;21.40;50.70;;;;;;5032766;28;20234;-42
2022/12/06 18:33:42;;;;;;;1.80;1.40;;;21.40;50.70;;;;;;5032319;28;20540;-40
2022/12/06 18:36:09;;;;;;;1.40;1.30;;;21.40;50.70;;;;;;5045986;28;20229;-49
2022/12/06 18:38:35;;;;;;;1.50;1.30;;;21.40;50.80;;;;;;5049818;28;20673;-45
2022/12/06 18:41:02;;;;;;;2.75;1.70;;;21.40;50.80;;;;;;5049064;28;20237;-47
2022/12/06 18:43:28;;;;;;;1.50;1.33;;;21.40;50.70;;;;;;5053058;28;20208;-44
2022/12/06 18:45:54;;;;;;;1.63;1.52;;;21.40;50.70;;;;;;5052502;28;20210;-49
2022/12/06 18:48:21;;;;;;;1.65;1.40;;;21.40;50.60;;;;;;5059075;28;20201;-42
2022/12/06 18:50:47;;;;;;;1.85;1.40;;;21.40;50.60;;;;;;5050891;28;20203;-45
2022/12/06 18:53:15;;;;;;;1.80;1.40;;;21.40;50.50;;;;;;5048227;28;20208;-47
2022/12/06 18:55:41;;;;;;;2.60;1.63;;;21.40;50.40;;;;;;5050505;28;20197;-48
2022/12/06 18:58:08;;;;;;;2.25;1.40;;;21.40;50.40;;;;;;5059528;28;20209;-47
2022/12/06 19:00:34;;;;;;;1.40;1.30;;;21.30;50.30;;;;;;5059912;28;20229;-48
2022/12/06 19:03:01;;;;;;;2.40;1.45;;;21.40;50.20;;;;;;5052220;28;20233;-43
2022/12/06 19:05:27;;;;;;;1.25;1.13;;;21.40;50.00;;;;;;5037274;28;20202;-45
2022/12/06 19:07:54;;;;;;;2.95;1.75;;;21.40;50.10;;;;;;5041446;28;20201;-44
2022/12/06 19:10:21;;;;;;;1.88;1.70;;;21.40;50.10;;;;;;5051032;28;20201;-44
2022/12/06 19:12:47;;;;;;;1.38;1.10;;;21.40;50.00;;;;;;5052598;28;20221;-44
